• Join FlightAware (Why Join?)
  • Login
  • US Flag 
05:13PM EDT


 

Airport Tracker/Info


-or-


 

Live Flight TrackerFlight Track Log ✈ ASQ4253 ✈ 07-Jun-2013 ✈ KCAE - KIAH

Flight Track Log - Related Links

Times and Time Zones

All times are in EDT time to prevent confusion due to time zone crossing. See the ASQ4253 flight status page for this flight to view local times or setup timezone preferences in your user account.

Time Position Orientation Groundspeed Altitude Reporting Facility
EDT Latitude Longitude Course Direction KTS MPH feet Rate Location/Type
05:39PM 33.9339 -81.2306 257° West 190 219 3,300  Level Jacksonville Center
05:40PM 33.9472 -81.2978 283° West 195 224 5,500 1,800 Climbing Jacksonville Center
05:41PM 33.7377 -81.5217 246° West  Level FlightAware Approximate
05:41PM 33.9628 -81.3653 286° West 205 236 7,000  Level Jacksonville Center
05:42PM 33.6853 -81.6216 237° Southwest  Level FlightAware Approximate
05:42PM 33.9597 -81.4503 268° West 226 260 8,600  Level Jacksonville Center
05:43PM 33.6316 -81.7206 243° Southwest  Level FlightAware Approximate
05:43PM 33.9269 -81.5261 243° Southwest 235 270 10,500  Level Jacksonville Center
05:44PM 33.8842 -81.6017 236° Southwest 258 297 12,100 1,380 Climbing Jacksonville Center
05:46PM 33.7653 -81.7900 233° Southwest 294 338 15,400 1,260 Climbing Atlanta Center
05:47PM 33.6892 -81.8442 211° Southwest 300 345 16,500 1,080 Climbing Atlanta Center
05:48PM 33.6169 -81.9036 214° Southwest 312 359 17,600 1,200 Climbing Atlanta Center
05:49PM 33.5431 -81.9653 215° Southwest 325 374 18,900 1,380 Climbing Atlanta Center
05:50PM 33.4711 -82.0317 218° Southwest 325 374 20,400 1,380 Climbing Atlanta Center
05:51PM 33.4031 -82.0931 217° Southwest 325 374 21,700 1,080 Climbing Atlanta Center
05:52PM 33.3247 -82.1444 209° Southwest 325 374 22,600 900 Climbing Atlanta Center
05:53PM 33.2461 -82.1983 210° Southwest 325 374 23,600 960 Climbing Atlanta Center
05:54PM 33.1675 -82.2544 211° Southwest 325 374 24,600 900 Climbing Atlanta Center
05:55PM 33.0828 -82.2983 203° Southwest 325 374 25,500 900 Climbing Atlanta Center
05:56PM 32.9869 -82.3153 188° South 331 381 26,500 960 Climbing Atlanta Center
05:57PM 32.8953 -82.3319 189° South 343 395 27,500 900 Climbing Atlanta Center
05:58PM 32.7994 -82.3486 188° South 348 400 28,400 900 Climbing Atlanta Center
05:59PM 32.7017 -82.3653 188° South 353 406 29,400 960 Climbing Atlanta Center
06:00PM 32.6336 -82.4283 218° Southwest 315 362 30,400 900 Climbing Atlanta Center
06:01PM 32.6014 -82.5347 250° West 302 348 31,300 900 Climbing Atlanta Center
06:02PM 32.5714 -82.6389 251° West 325 374 32,200 900 Climbing Atlanta Center
06:03PM 32.5350 -82.7381 247° West 333 383 33,200 900 Climbing Atlanta Center
06:04PM 32.5047 -82.8344 250° West 344 396 34,000 360 Climbing Atlanta Center
06:05PM 32.4661 -82.9408 247° West 350 403 34,000  Level Atlanta Center
06:06PM 32.4253 -83.0522 247° West 362 417 34,000 480 Level Atlanta Center
06:07PM 32.3822 -83.1633 245° Southwest 373 429 35,000 960 Climbing Atlanta Center
06:08PM 32.3494 -83.2792 252° West 378 435 36,000 480 Climbing Atlanta Center
06:09PM 32.3167 -83.3925 251° West 372 428 36,000  Level Atlanta Center
06:10PM 32.2819 -83.5081 250° West 372 428 36,000  Level Atlanta Center
06:11PM 32.2469 -83.6311 251° West 384 442 36,000  Level Atlanta Center
06:12PM 32.2075 -83.7567 250° West 395 455 36,000  Level Atlanta Center
06:13PM 32.1722 -83.8769 251° West 395 455 36,000  Level Atlanta Center
06:14PM 32.1369 -83.9994 251° West 395 455 36,000  Level Atlanta Center
06:15PM 32.0950 -84.1419 251° West 405 466 36,000  Level Atlanta Center
06:16PM 32.0575 -84.2644 250° West 410 472 36,000  Level Atlanta Center
06:17PM 32.0175 -84.3867 249° West 410 472 36,000  Level Atlanta Center
06:18PM 31.9794 -84.5089 250° West 410 472 36,000  Level Atlanta Center
06:19PM 31.9569 -84.5797 249° West 411 473 36,000  Level Jacksonville Center
06:20PM 31.9261 -84.6892 252° West 411 473 36,000  Level Jacksonville Center
06:21PM 31.8869 -84.8058 248° West 405 466 36,000  Level Jacksonville Center
06:22PM 31.8475 -84.9225 248° West 398 458 36,000  Level Jacksonville Center
06:23PM 31.8039 -85.0317 245° Southwest 385 443 36,000  Level Jacksonville Center
06:24PM 31.7581 -85.1453 245° Southwest 385 443 36,000  Level Jacksonville Center
06:25PM 31.7122 -85.2589 245° Southwest 385 443 36,000  Level Jacksonville Center
06:26PM 31.6706 -85.3728 247° West 380 437 36,000  Level Jacksonville Center
06:27PM 31.6242 -85.4886 245° Southwest 386 444 36,000  Level Jacksonville Center
06:28PM 31.5803 -85.5994 245° Southwest 386 444 36,000  Level Jacksonville Center
06:29PM 31.5361 -85.7078 244° Southwest 380 437 36,000  Level Jacksonville Center
06:30PM 31.4919 -85.8186 245° Southwest 375 432 36,000  Level Jacksonville Center
06:31PM 31.4475 -85.9267 244° Southwest 375 432 36,000  Level Jacksonville Center
06:32PM 31.3989 -86.0347 242° Southwest 380 437 36,000  Level Jacksonville Center
06:33PM 31.3503 -86.1425 242° Southwest 380 437 36,000  Level Jacksonville Center
06:34PM 31.3036 -86.2528 244° Southwest 375 432 36,000  Level Jacksonville Center
06:35PM 31.2589 -86.3631 245° Southwest 380 437 36,000  Level Jacksonville Center
06:36PM 31.2100 -86.4703 242° Southwest 380 437 36,000  Level Jacksonville Center
06:37PM 31.1392 -86.6322 243° Southwest 380 437 36,000  Level Houston Center
06:38PM 31.0903 -86.7417 242° Southwest 383 441 36,000  Level Houston Center
06:39PM 31.0403 -86.8517 242° Southwest 385 443 36,000  Level Houston Center
06:40PM 30.9836 -86.9831 243° Southwest 380 437 36,000  Level Houston Center
06:41PM 30.9411 -87.0767 242° Southwest 383 441 36,000  Level Houston Center
06:42PM 30.8833 -87.2083 243° Southwest 382 440 36,000  Level Houston Center
06:43PM 30.8636 -87.3331 260° West 394 453 36,000  Level Houston Center
06:44PM 30.8469 -87.4597 261° West 396 456 36,000  Level Houston Center
06:45PM 30.8297 -87.5839 261° West 392 451 36,000  Level Houston Center
06:46PM 30.8114 -87.7217 261° West 388 447 36,000  Level Houston Center
06:48PM 30.7947 -87.8469 261° West 393 452 36,000  Level Houston Center
06:49PM 30.7783 -87.9719 261° West 393 452 36,000  Level Houston Center
06:50PM 30.7606 -88.0933 260° West 384 442 36,000  Level Houston Center
06:51PM 30.7444 -88.2144 261° West 382 440 36,000  Level Houston Center
06:52PM 30.7264 -88.3389 260° West 390 449 36,000  Level Houston Center
06:53PM 30.6836 -88.4764 250° West 395 455 36,000  Level Houston Center
06:54PM 30.6433 -88.5936 248° West 392 451 36,000  Level Houston Center
06:55PM 30.6033 -88.7117 249° West 393 452 36,000  Level Houston Center
06:56PM 30.5619 -88.8294 248° West 395 455 36,000  Level Houston Center
06:57PM 30.5200 -88.9542 249° West 397 457 36,000  Level Houston Center
06:58PM 30.4797 -89.0731 249° West 397 457 36,000  Level Houston Center
06:59PM 30.4306 -89.2147 248° West 395 455 36,000  Level Houston Center
07:00PM 30.3894 -89.3319 248° West 393 452 36,000 -60 Level Houston Center
07:01PM 30.3472 -89.4519 248° West 400 460 35,900 -540 Descending Houston Center
07:02PM 30.3056 -89.5722 248° West 402 463 35,000 -480 Descending Houston Center
07:03PM 30.2597 -89.6950 247° West 409 471 35,000 -120 Level Houston Center
07:04PM 30.2136 -89.8228 247° West 418 481 34,800 -1,080 Descending Houston Center
07:05PM 30.1731 -89.9456 249° West 408 470 32,800 -1,980 Descending Houston Center
07:06PM 30.1278 -90.0708 247° West 418 481 30,800 -1,440 Descending Houston Center
07:07PM 30.0844 -90.1922 248° West 412 474 29,900 -420 Descending Houston Center
07:08PM 30.0333 -90.3375 248° West 409 471 30,000  Climbing Houston Center
07:09PM 29.9886 -90.4592 247° West 412 474 30,000  Level Houston Center
07:10PM 29.9433 -90.5842 247° West 421 484 30,000  Level Houston Center
07:11PM 29.8978 -90.7086 247° West 422 486 30,000  Level Houston Center
07:12PM 29.8536 -90.8325 248° West 420 483 30,000  Level Houston Center
07:13PM 29.8075 -90.9564 247° West 421 484 30,000  Level Houston Center
07:14PM 29.7525 -91.1078 247° West 428 493 30,000 -60 Level Houston Center
07:15PM 29.7053 -91.2350 247° West 431 496 29,900  Descending Houston Center
07:16PM 29.6581 -91.3617 247° West 432 497 30,000  Climbing Houston Center
07:17PM 29.6158 -91.4897 249° West 432 497 30,000  Level Houston Center
07:18PM 29.5956 -91.6250 260° West 429 494 30,000  Level Houston Center
07:19PM 29.5717 -91.7700 259° West 433 498 30,000  Level Houston Center
07:21PM 29.5489 -91.9056 259° West 432 497 30,000  Level Houston Center
07:22PM 29.5258 -92.0422 259° West 436 502 30,000  Level Houston Center
07:23PM 29.5028 -92.1783 259° West 435 501 30,000  Level Houston Center
07:24PM 29.4756 -92.3419 259° West 436 502 30,000  Level Houston Center
07:25PM 29.4564 -92.4800 261° West 439 505 30,000  Level Houston Center
07:26PM 29.4644 -92.6183 274° West 435 501 30,000  Level Houston Center
07:27PM 29.4700 -92.7581 273° West 436 502 30,000 -780 Level Houston Center
07:28PM 29.4772 -92.8972 273° West 437 503 28,500 -1,740 Descending Houston Center
07:29PM 29.4828 -93.0394 273° West 444 511 26,500 -1,680 Descending Houston Center
07:30PM 29.4892 -93.1858 273° West 456 525 25,100 -1,500 Descending Houston Center
07:31PM 29.4967 -93.3606 273° West 455 524 23,500 -1,440 Descending Houston Center
07:32PM 29.5028 -93.5000 273° West 441 507 22,200 -1,200 Descending Houston Center
07:33PM 29.5072 -93.6358 272° West 427 491 21,100 -1,080 Descending Houston Center
07:34PM 29.5122 -93.7703 272° West 422 486 20,100 -540 Descending Houston Center
07:35PM 29.5172 -93.9050 272° West 421 484 20,000 -60 Descending Houston Center
07:36PM 29.5217 -94.0383 272° West 418 481 20,000 -1,620 Level Houston Center
07:37PM 29.5281 -94.1767 273° West 411 473 16,700 -3,300 Descending Houston Center
07:38PM 29.5322 -94.2958 272° West 379 436 13,300 -1,860 Descending Houston Center
07:39PM 29.5597 -94.4092 286° West 324 373 12,900 -840 Descending Houston Center
07:40PM 29.5917 -94.4803 297° West 304 350 11,600 -1,680 Descending Houston Center
07:41PM 29.6317 -94.5753 296° West 278 320 9,600 -1,860 Descending Houston Center
07:42PM 29.6639 -94.6483 297° West 259 298 7,800 -1,740 Descending Houston Center
07:43PM 29.7167 -94.7019 319° Northwest 248 285 6,100 -1,560 Descending Houston Center
07:44PM 29.7658 -94.7581 315° West 250 288 4,600 -1,020 Descending Houston Center
07:45PM 29.8156 -94.8144 315° West 251 289 4,000 -300 Descending Houston Center
07:46PM 29.8650 -94.8692 316° Northwest 249 287 4,000 -420 Level Houston Center
07:47PM 29.9061 -94.9497 301° West 247 284 3,200 -540 Descending Houston Center
07:48PM 29.9333 -95.0167 295° West 247 284 3,000 -360 Descending Houston Center
07:49PM 29.9592 -95.0906 292° West 240 276 2,500 -540 Descending Houston Center